sensor_id;sensor_type;location;lat;lon;timestamp;P1;durP1;ratioP1;P2;durP2;ratioP2
51010;SDS011;37038;50.182;8.624;2022-07-29T00:01:37;10.65;;;2.17;;
51010;SDS011;37038;50.182;8.624;2022-07-29T00:04:25;8.32;;;2.08;;
51010;SDS011;37038;50.182;8.624;2022-07-29T00:07:13;4.13;;;2.00;;
51010;SDS011;37038;50.182;8.624;2022-07-29T00:10:00;5.68;;;2.00;;
51010;SDS011;37038;50.182;8.624;2022-07-29T00:12:50;4.05;;;2.13;;
51010;SDS011;37038;50.182;8.624;2022-07-29T00:15:38;6.10;;;2.03;;
51010;SDS011;37038;50.182;8.624;2022-07-29T00:18:26;5.35;;;2.00;;
51010;SDS011;37038;50.182;8.624;2022-07-29T00:21:16;3.40;;;2.28;;
51010;SDS011;37038;50.182;8.624;2022-07-29T00:24:04;7.80;;;2.47;;
51010;SDS011;37038;50.182;8.624;2022-07-29T00:26:52;4.85;;;1.90;;
51010;SDS011;37038;50.182;8.624;2022-07-29T00:29:40;5.45;;;2.75;;
51010;SDS011;37038;50.182;8.624;2022-07-29T00:32:27;5.43;;;2.75;;
51010;SDS011;37038;50.182;8.624;2022-07-29T00:35:15;8.90;;;2.50;;
51010;SDS011;37038;50.182;8.624;2022-07-29T00:38:22;5.00;;;2.63;;
51010;SDS011;37038;50.182;8.624;2022-07-29T00:41:10;5.70;;;2.83;;
51010;SDS011;37038;50.182;8.624;2022-07-29T00:43:58;5.65;;;2.80;;
51010;SDS011;37038;50.182;8.624;2022-07-29T00:46:46;4.57;;;2.80;;
51010;SDS011;37038;50.182;8.624;2022-07-29T00:49:34;4.53;;;2.45;;
51010;SDS011;37038;50.182;8.624;2022-07-29T00:52:23;9.77;;;2.85;;
51010;SDS011;37038;50.182;8.624;2022-07-29T00:55:12;8.50;;;3.30;;
51010;SDS011;37038;50.182;8.624;2022-07-29T00:58:02;6.30;;;2.80;;
51010;SDS011;37038;50.182;8.624;2022-07-29T01:00:50;5.15;;;2.30;;
51010;SDS011;37038;50.182;8.624;2022-07-29T01:03:39;4.65;;;2.25;;
51010;SDS011;37038;50.182;8.624;2022-07-29T01:06:27;9.70;;;3.33;;
51010;SDS011;37038;50.182;8.624;2022-07-29T01:09:15;8.57;;;2.30;;
51010;SDS011;37038;50.182;8.624;2022-07-29T01:12:25;7.45;;;2.45;;
51010;SDS011;37038;50.182;8.624;2022-07-29T01:15:15;9.00;;;2.85;;
51010;SDS011;37038;50.182;8.624;2022-07-29T01:18:07;5.95;;;2.90;;
51010;SDS011;37038;50.182;8.624;2022-07-29T01:30:42;7.28;;;3.00;;
51010;SDS011;37038;50.182;8.624;2022-07-29T01:33:36;5.18;;;2.53;;
51010;SDS011;37038;50.182;8.624;2022-07-29T01:36:37;9.68;;;2.83;;
51010;SDS011;37038;50.182;8.624;2022-07-29T01:39:32;5.38;;;2.65;;
51010;SDS011;37038;50.182;8.624;2022-07-29T01:45:20;5.82;;;3.00;;
51010;SDS011;37038;50.182;8.624;2022-07-29T01:51:12;5.13;;;3.03;;
51010;SDS011;37038;50.182;8.624;2022-07-29T01:54:13;7.05;;;3.00;;
51010;SDS011;37038;50.182;8.624;2022-07-29T01:57:16;4.53;;;2.58;;
51010;SDS011;37038;50.182;8.624;2022-07-29T02:00:07;9.60;;;2.80;;
51010;SDS011;37038;50.182;8.624;2022-07-29T02:02:56;4.35;;;2.35;;
51010;SDS011;37038;50.182;8.624;2022-07-29T02:05:47;10.57;;;2.92;;
51010;SDS011;37038;50.182;8.624;2022-07-29T02:08:36;6.28;;;2.20;;
51010;SDS011;37038;50.182;8.624;2022-07-29T02:11:26;7.43;;;2.90;;
51010;SDS011;37038;50.182;8.624;2022-07-29T02:14:14;5.00;;;2.63;;
51010;SDS011;37038;50.182;8.624;2022-07-29T02:17:05;5.35;;;2.45;;
51010;SDS011;37038;50.182;8.624;2022-07-29T02:19:55;5.13;;;2.88;;
51010;SDS011;37038;50.182;8.624;2022-07-29T02:22:47;6.10;;;2.38;;
51010;SDS011;37038;50.182;8.624;2022-07-29T02:25:37;5.63;;;2.63;;
51010;SDS011;37038;50.182;8.624;2022-07-29T02:28:27;7.88;;;2.97;;
51010;SDS011;37038;50.182;8.624;2022-07-29T02:31:16;4.45;;;2.85;;
51010;SDS011;37038;50.182;8.624;2022-07-29T02:34:20;8.15;;;3.40;;
51010;SDS011;37038;50.182;8.624;2022-07-29T02:37:10;5.60;;;2.97;;
51010;SDS011;37038;50.182;8.624;2022-07-29T02:40:00;8.00;;;3.28;;
51010;SDS011;37038;50.182;8.624;2022-07-29T02:42:49;4.38;;;2.83;;
51010;SDS011;37038;50.182;8.624;2022-07-29T02:45:37;7.65;;;3.42;;
51010;SDS011;37038;50.182;8.624;2022-07-29T02:48:28;5.18;;;3.03;;
51010;SDS011;37038;50.182;8.624;2022-07-29T02:51:28;10.75;;;3.08;;
51010;SDS011;37038;50.182;8.624;2022-07-29T02:54:33;16.73;;;4.20;;
51010;SDS011;37038;50.182;8.624;2022-07-29T03:00:41;19.95;;;4.35;;
51010;SDS011;37038;50.182;8.624;2022-07-29T03:03:35;8.82;;;3.63;;
51010;SDS011;37038;50.182;8.624;2022-07-29T03:06:25;7.23;;;2.77;;
51010;SDS011;37038;50.182;8.624;2022-07-29T03:09:25;6.25;;;3.33;;
51010;SDS011;37038;50.182;8.624;2022-07-29T03:12:15;5.93;;;3.70;;
51010;SDS011;37038;50.182;8.624;2022-07-29T03:15:04;28.00;;;4.18;;
51010;SDS011;37038;50.182;8.624;2022-07-29T03:17:53;6.80;;;2.90;;
51010;SDS011;37038;50.182;8.624;2022-07-29T03:20:42;8.15;;;3.35;;
51010;SDS011;37038;50.182;8.624;2022-07-29T03:23:30;4.97;;;3.30;;
51010;SDS011;37038;50.182;8.624;2022-07-29T03:26:23;6.43;;;3.65;;
51010;SDS011;37038;50.182;8.624;2022-07-29T03:29:10;4.50;;;3.22;;
51010;SDS011;37038;50.182;8.624;2022-07-29T03:32:04;8.27;;;3.80;;
51010;SDS011;37038;50.182;8.624;2022-07-29T03:34:54;4.75;;;3.65;;
51010;SDS011;37038;50.182;8.624;2022-07-29T03:37:42;7.95;;;3.70;;
51010;SDS011;37038;50.182;8.624;2022-07-29T03:40:32;8.02;;;3.60;;
51010;SDS011;37038;50.182;8.624;2022-07-29T03:46:14;11.20;;;4.05;;
51010;SDS011;37038;50.182;8.624;2022-07-29T03:49:08;7.07;;;4.07;;
51010;SDS011;37038;50.182;8.624;2022-07-29T03:51:58;7.80;;;3.65;;
51010;SDS011;37038;50.182;8.624;2022-07-29T03:54:47;3.53;;;2.92;;
51010;SDS011;37038;50.182;8.624;2022-07-29T03:57:35;9.38;;;3.25;;
51010;SDS011;37038;50.182;8.624;2022-07-29T04:00:25;5.13;;;3.17;;
51010;SDS011;37038;50.182;8.624;2022-07-29T04:03:14;4.03;;;3.30;;
51010;SDS011;37038;50.182;8.624;2022-07-29T04:06:04;14.45;;;3.53;;
51010;SDS011;37038;50.182;8.624;2022-07-29T04:08:53;9.27;;;3.97;;
51010;SDS011;37038;50.182;8.624;2022-07-29T04:11:41;8.30;;;3.90;;
51010;SDS011;37038;50.182;8.624;2022-07-29T04:14:49;9.93;;;4.00;;
51010;SDS011;37038;50.182;8.624;2022-07-29T04:17:37;8.60;;;3.50;;
51010;SDS011;37038;50.182;8.624;2022-07-29T04:20:25;6.82;;;4.13;;
51010;SDS011;37038;50.182;8.624;2022-07-29T04:23:13;7.88;;;3.72;;
51010;SDS011;37038;50.182;8.624;2022-07-29T04:26:00;13.18;;;4.00;;
51010;SDS011;37038;50.182;8.624;2022-07-29T04:28:48;9.13;;;4.10;;
51010;SDS011;37038;50.182;8.624;2022-07-29T04:31:36;9.60;;;4.20;;
51010;SDS011;37038;50.182;8.624;2022-07-29T04:34:24;6.70;;;3.78;;
51010;SDS011;37038;50.182;8.624;2022-07-29T04:37:14;12.13;;;4.47;;
51010;SDS011;37038;50.182;8.624;2022-07-29T04:40:02;6.18;;;3.97;;
51010;SDS011;37038;50.182;8.624;2022-07-29T04:42:50;10.77;;;3.85;;
51010;SDS011;37038;50.182;8.624;2022-07-29T04:45:40;13.27;;;4.03;;
51010;SDS011;37038;50.182;8.624;2022-07-29T04:48:28;8.35;;;3.95;;
51010;SDS011;37038;50.182;8.624;2022-07-29T04:51:16;7.60;;;3.78;;
51010;SDS011;37038;50.182;8.624;2022-07-29T04:54:04;13.60;;;4.70;;
51010;SDS011;37038;50.182;8.624;2022-07-29T04:56:53;29.05;;;6.97;;
51010;SDS011;37038;50.182;8.624;2022-07-29T04:59:40;26.80;;;5.85;;
51010;SDS011;37038;50.182;8.624;2022-07-29T05:02:28;21.02;;;5.55;;
51010;SDS011;37038;50.182;8.624;2022-07-29T05:05:16;19.25;;;5.75;;
51010;SDS011;37038;50.182;8.624;2022-07-29T05:08:04;53.25;;;12.50;;
51010;SDS011;37038;50.182;8.624;2022-07-29T05:10:52;6.63;;;4.18;;
51010;SDS011;37038;50.182;8.624;2022-07-29T05:13:40;9.85;;;4.80;;
51010;SDS011;37038;50.182;8.624;2022-07-29T05:16:33;7.78;;;4.63;;
51010;SDS011;37038;50.182;8.624;2022-07-29T05:19:21;9.80;;;4.60;;
51010;SDS011;37038;50.182;8.624;2022-07-29T05:22:08;9.90;;;4.35;;
51010;SDS011;37038;50.182;8.624;2022-07-29T05:24:56;9.00;;;4.20;;
51010;SDS011;37038;50.182;8.624;2022-07-29T05:27:44;9.50;;;4.57;;
51010;SDS011;37038;50.182;8.624;2022-07-29T05:30:36;7.43;;;4.57;;
51010;SDS011;37038;50.182;8.624;2022-07-29T05:33:24;6.78;;;4.75;;
51010;SDS011;37038;50.182;8.624;2022-07-29T05:36:22;7.47;;;4.60;;
51010;SDS011;37038;50.182;8.624;2022-07-29T05:39:10;9.98;;;5.07;;
51010;SDS011;37038;50.182;8.624;2022-07-29T05:41:58;7.18;;;4.13;;
51010;SDS011;37038;50.182;8.624;2022-07-29T05:44:46;6.40;;;4.47;;
51010;SDS011;37038;50.182;8.624;2022-07-29T05:47:34;10.02;;;3.88;;
51010;SDS011;37038;50.182;8.624;2022-07-29T05:50:22;4.45;;;3.70;;
51010;SDS011;37038;50.182;8.624;2022-07-29T05:53:10;9.05;;;3.90;;
51010;SDS011;37038;50.182;8.624;2022-07-29T05:56:06;6.60;;;4.18;;
51010;SDS011;37038;50.182;8.624;2022-07-29T05:58:54;8.00;;;3.72;;
51010;SDS011;37038;50.182;8.624;2022-07-29T06:01:42;11.88;;;4.05;;
51010;SDS011;37038;50.182;8.624;2022-07-29T06:04:31;6.32;;;3.38;;
51010;SDS011;37038;50.182;8.624;2022-07-29T06:07:20;8.80;;;3.90;;
51010;SDS011;37038;50.182;8.624;2022-07-29T06:10:08;7.22;;;3.45;;
51010;SDS011;37038;50.182;8.624;2022-07-29T06:12:56;6.40;;;3.53;;
51010;SDS011;37038;50.182;8.624;2022-07-29T06:15:47;10.80;;;3.92;;
51010;SDS011;37038;50.182;8.624;2022-07-29T06:18:35;7.43;;;3.53;;
51010;SDS011;37038;50.182;8.624;2022-07-29T06:21:23;5.22;;;3.47;;
51010;SDS011;37038;50.182;8.624;2022-07-29T06:24:14;10.40;;;4.05;;
51010;SDS011;37038;50.182;8.624;2022-07-29T06:27:04;5.90;;;3.72;;
51010;SDS011;37038;50.182;8.624;2022-07-29T06:29:51;8.95;;;3.65;;
51010;SDS011;37038;50.182;8.624;2022-07-29T06:32:39;8.73;;;3.60;;
51010;SDS011;37038;50.182;8.624;2022-07-29T06:35:29;8.70;;;3.22;;
51010;SDS011;37038;50.182;8.624;2022-07-29T06:38:28;9.70;;;3.20;;
51010;SDS011;37038;50.182;8.624;2022-07-29T06:41:28;15.07;;;3.80;;
51010;SDS011;37038;50.182;8.624;2022-07-29T06:44:16;7.72;;;3.35;;
51010;SDS011;37038;50.182;8.624;2022-07-29T06:47:05;9.48;;;3.22;;
51010;SDS011;37038;50.182;8.624;2022-07-29T06:49:53;7.43;;;3.50;;
51010;SDS011;37038;50.182;8.624;2022-07-29T06:52:41;5.57;;;2.67;;
51010;SDS011;37038;50.182;8.624;2022-07-29T06:55:29;4.65;;;3.00;;
51010;SDS011;37038;50.182;8.624;2022-07-29T06:58:16;8.88;;;3.30;;
51010;SDS011;37038;50.182;8.624;2022-07-29T07:01:07;9.02;;;3.00;;
51010;SDS011;37038;50.182;8.624;2022-07-29T07:03:55;5.97;;;3.13;;
51010;SDS011;37038;50.182;8.624;2022-07-29T07:06:43;7.55;;;2.83;;
51010;SDS011;37038;50.182;8.624;2022-07-29T07:09:31;8.13;;;3.67;;
51010;SDS011;37038;50.182;8.624;2022-07-29T07:12:27;4.55;;;2.53;;
51010;SDS011;37038;50.182;8.624;2022-07-29T07:15:14;10.50;;;2.78;;
51010;SDS011;37038;50.182;8.624;2022-07-29T07:18:03;4.45;;;2.80;;
51010;SDS011;37038;50.182;8.624;2022-07-29T07:20:52;5.65;;;2.63;;
51010;SDS011;37038;50.182;8.624;2022-07-29T07:23:40;6.63;;;2.50;;
51010;SDS011;37038;50.182;8.624;2022-07-29T07:26:28;4.72;;;2.72;;
51010;SDS011;37038;50.182;8.624;2022-07-29T07:29:16;7.85;;;3.00;;
51010;SDS011;37038;50.182;8.624;2022-07-29T07:32:04;5.47;;;2.55;;
51010;SDS011;37038;50.182;8.624;2022-07-29T07:34:52;11.60;;;3.15;;
51010;SDS011;37038;50.182;8.624;2022-07-29T07:37:40;4.95;;;2.72;;
51010;SDS011;37038;50.182;8.624;2022-07-29T07:40:27;5.18;;;2.38;;
51010;SDS011;37038;50.182;8.624;2022-07-29T07:43:15;5.32;;;2.78;;
51010;SDS011;37038;50.182;8.624;2022-07-29T07:46:03;4.07;;;2.85;;
51010;SDS011;37038;50.182;8.624;2022-07-29T07:48:51;4.28;;;2.83;;
51010;SDS011;37038;50.182;8.624;2022-07-29T07:51:39;5.15;;;2.70;;
51010;SDS011;37038;50.182;8.624;2022-07-29T07:54:27;6.65;;;3.13;;
51010;SDS011;37038;50.182;8.624;2022-07-29T07:57:15;6.20;;;2.78;;
51010;SDS011;37038;50.182;8.624;2022-07-29T08:00:04;10.73;;;2.83;;
51010;SDS011;37038;50.182;8.624;2022-07-29T08:02:53;8.55;;;2.80;;
51010;SDS011;37038;50.182;8.624;2022-07-29T08:05:40;5.60;;;3.00;;
51010;SDS011;37038;50.182;8.624;2022-07-29T08:08:29;5.43;;;2.67;;
51010;SDS011;37038;50.182;8.624;2022-07-29T08:11:16;6.05;;;2.55;;
51010;SDS011;37038;50.182;8.624;2022-07-29T08:14:04;4.60;;;2.70;;
51010;SDS011;37038;50.182;8.624;2022-07-29T08:16:52;5.78;;;2.67;;
51010;SDS011;37038;50.182;8.624;2022-07-29T08:19:40;7.78;;;2.85;;
51010;SDS011;37038;50.182;8.624;2022-07-29T08:22:28;4.35;;;2.65;;
51010;SDS011;37038;50.182;8.624;2022-07-29T08:25:16;5.65;;;2.67;;
51010;SDS011;37038;50.182;8.624;2022-07-29T08:28:07;5.95;;;2.60;;
51010;SDS011;37038;50.182;8.624;2022-07-29T08:30:55;6.07;;;2.70;;
51010;SDS011;37038;50.182;8.624;2022-07-29T08:33:43;5.05;;;2.38;;
51010;SDS011;37038;50.182;8.624;2022-07-29T08:36:34;9.38;;;2.72;;
51010;SDS011;37038;50.182;8.624;2022-07-29T08:39:24;5.97;;;2.45;;
51010;SDS011;37038;50.182;8.624;2022-07-29T08:42:12;5.18;;;2.85;;
51010;SDS011;37038;50.182;8.624;2022-07-29T08:45:00;4.45;;;2.45;;
51010;SDS011;37038;50.182;8.624;2022-07-29T08:47:49;5.25;;;2.67;;
51010;SDS011;37038;50.182;8.624;2022-07-29T08:50:41;8.55;;;2.95;;
51010;SDS011;37038;50.182;8.624;2022-07-29T08:53:35;5.53;;;3.05;;
51010;SDS011;37038;50.182;8.624;2022-07-29T08:56:25;7.82;;;2.63;;
51010;SDS011;37038;50.182;8.624;2022-07-29T08:59:19;6.67;;;2.90;;
51010;SDS011;37038;50.182;8.624;2022-07-29T09:02:21;5.43;;;2.83;;
51010;SDS011;37038;50.182;8.624;2022-07-29T09:05:09;5.35;;;2.58;;
51010;SDS011;37038;50.182;8.624;2022-07-29T09:08:00;7.55;;;2.70;;
51010;SDS011;37038;50.182;8.624;2022-07-29T09:10:56;6.70;;;2.47;;
51010;SDS011;37038;50.182;8.624;2022-07-29T09:13:53;4.47;;;2.50;;
51010;SDS011;37038;50.182;8.624;2022-07-29T09:16:50;9.02;;;2.78;;
51010;SDS011;37038;50.182;8.624;2022-07-29T09:19:47;8.70;;;2.38;;
51010;SDS011;37038;50.182;8.624;2022-07-29T09:22:42;7.43;;;2.30;;
51010;SDS011;37038;50.182;8.624;2022-07-29T09:25:36;4.90;;;2.75;;
51010;SDS011;37038;50.182;8.624;2022-07-29T09:28:30;7.80;;;2.83;;
51010;SDS011;37038;50.182;8.624;2022-07-29T09:31:34;8.80;;;2.55;;
51010;SDS011;37038;50.182;8.624;2022-07-29T09:34:27;7.63;;;2.92;;
51010;SDS011;37038;50.182;8.624;2022-07-29T09:37:28;5.68;;;2.78;;
51010;SDS011;37038;50.182;8.624;2022-07-29T09:40:24;4.95;;;2.70;;
51010;SDS011;37038;50.182;8.624;2022-07-29T09:43:21;10.52;;;2.53;;
51010;SDS011;37038;50.182;8.624;2022-07-29T09:46:16;7.05;;;2.50;;
51010;SDS011;37038;50.182;8.624;2022-07-29T09:49:12;6.82;;;2.55;;
51010;SDS011;37038;50.182;8.624;2022-07-29T09:52:08;4.82;;;2.42;;
51010;SDS011;37038;50.182;8.624;2022-07-29T09:55:05;4.28;;;2.50;;
51010;SDS011;37038;50.182;8.624;2022-07-29T09:58:17;5.43;;;2.58;;
51010;SDS011;37038;50.182;8.624;2022-07-29T10:01:06;7.65;;;2.63;;
51010;SDS011;37038;50.182;8.624;2022-07-29T10:03:57;3.60;;;2.22;;
51010;SDS011;37038;50.182;8.624;2022-07-29T10:06:59;5.72;;;2.40;;
51010;SDS011;37038;50.182;8.624;2022-07-29T10:09:54;4.87;;;2.40;;
51010;SDS011;37038;50.182;8.624;2022-07-29T10:12:49;5.28;;;2.85;;
51010;SDS011;37038;50.182;8.624;2022-07-29T10:15:53;5.78;;;2.88;;
51010;SDS011;37038;50.182;8.624;2022-07-29T10:18:46;8.27;;;2.70;;
51010;SDS011;37038;50.182;8.624;2022-07-29T10:21:38;3.22;;;2.85;;
51010;SDS011;37038;50.182;8.624;2022-07-29T10:24:31;4.97;;;2.45;;
51010;SDS011;37038;50.182;8.624;2022-07-29T10:27:27;6.35;;;2.80;;
51010;SDS011;37038;50.182;8.624;2022-07-29T10:30:21;7.90;;;2.53;;
51010;SDS011;37038;50.182;8.624;2022-07-29T10:33:16;5.32;;;2.67;;
51010;SDS011;37038;50.182;8.624;2022-07-29T10:36:17;5.78;;;2.55;;
51010;SDS011;37038;50.182;8.624;2022-07-29T10:42:43;7.65;;;2.63;;
51010;SDS011;37038;50.182;8.624;2022-07-29T10:45:37;5.85;;;2.97;;
51010;SDS011;37038;50.182;8.624;2022-07-29T10:48:29;8.57;;;2.92;;
51010;SDS011;37038;50.182;8.624;2022-07-29T10:51:20;10.00;;;2.72;;
51010;SDS011;37038;50.182;8.624;2022-07-29T10:54:11;10.00;;;2.60;;
51010;SDS011;37038;50.182;8.624;2022-07-29T11:00:32;4.63;;;2.45;;
51010;SDS011;37038;50.182;8.624;2022-07-29T11:04:05;5.32;;;2.60;;
51010;SDS011;37038;50.182;8.624;2022-07-29T11:13:00;5.47;;;2.75;;
51010;SDS011;37038;50.182;8.624;2022-07-29T11:15:52;7.85;;;3.03;;
51010;SDS011;37038;50.182;8.624;2022-07-29T11:21:59;5.97;;;3.13;;
51010;SDS011;37038;50.182;8.624;2022-07-29T11:24:51;4.93;;;2.92;;
51010;SDS011;37038;50.182;8.624;2022-07-29T11:28:25;6.93;;;2.90;;
51010;SDS011;37038;50.182;8.624;2022-07-29T11:31:14;3.30;;;2.50;;
51010;SDS011;37038;50.182;8.624;2022-07-29T11:34:17;4.28;;;3.17;;
51010;SDS011;37038;50.182;8.624;2022-07-29T11:37:34;7.72;;;2.92;;
51010;SDS011;37038;50.182;8.624;2022-07-29T11:40:31;5.15;;;3.03;;
51010;SDS011;37038;50.182;8.624;2022-07-29T11:43:45;3.40;;;2.72;;
51010;SDS011;37038;50.182;8.624;2022-07-29T11:46:50;10.27;;;3.10;;
51010;SDS011;37038;50.182;8.624;2022-07-29T11:49:40;6.03;;;3.88;;
51010;SDS011;37038;50.182;8.624;2022-07-29T11:52:38;9.15;;;3.20;;
51010;SDS011;37038;50.182;8.624;2022-07-29T11:55:36;12.15;;;4.18;;
51010;SDS011;37038;50.182;8.624;2022-07-29T11:58:38;5.15;;;2.83;;
51010;SDS011;37038;50.182;8.624;2022-07-29T12:01:26;5.90;;;3.10;;
51010;SDS011;37038;50.182;8.624;2022-07-29T12:04:19;8.10;;;3.45;;
51010;SDS011;37038;50.182;8.624;2022-07-29T12:07:07;5.05;;;3.25;;
51010;SDS011;37038;50.182;8.624;2022-07-29T12:10:02;5.60;;;3.70;;
51010;SDS011;37038;50.182;8.624;2022-07-29T12:12:52;6.28;;;2.78;;
51010;SDS011;37038;50.182;8.624;2022-07-29T12:15:41;7.82;;;3.70;;
51010;SDS011;37038;50.182;8.624;2022-07-29T12:18:35;6.38;;;3.17;;
51010;SDS011;37038;50.182;8.624;2022-07-29T12:21:26;7.32;;;2.90;;
51010;SDS011;37038;50.182;8.624;2022-07-29T12:24:43;4.57;;;2.63;;
51010;SDS011;37038;50.182;8.624;2022-07-29T12:27:34;6.00;;;3.08;;
51010;SDS011;37038;50.182;8.624;2022-07-29T12:33:37;4.75;;;3.13;;
51010;SDS011;37038;50.182;8.624;2022-07-29T12:36:25;9.20;;;3.10;;
51010;SDS011;37038;50.182;8.624;2022-07-29T12:39:14;4.82;;;3.25;;
51010;SDS011;37038;50.182;8.624;2022-07-29T12:42:11;6.03;;;3.42;;
51010;SDS011;37038;50.182;8.624;2022-07-29T12:45:05;4.15;;;2.70;;
51010;SDS011;37038;50.182;8.624;2022-07-29T12:47:54;7.20;;;3.85;;
51010;SDS011;37038;50.182;8.624;2022-07-29T12:50:52;7.20;;;3.20;;
51010;SDS011;37038;50.182;8.624;2022-07-29T12:54:02;4.22;;;2.90;;
51010;SDS011;37038;50.182;8.624;2022-07-29T12:57:02;4.28;;;2.70;;
51010;SDS011;37038;50.182;8.624;2022-07-29T13:00:10;8.80;;;3.30;;
51010;SDS011;37038;50.182;8.624;2022-07-29T13:03:02;3.47;;;3.17;;
51010;SDS011;37038;50.182;8.624;2022-07-29T13:05:54;5.82;;;3.08;;
51010;SDS011;37038;50.182;8.624;2022-07-29T13:08:57;3.40;;;3.10;;
51010;SDS011;37038;50.182;8.624;2022-07-29T13:11:52;8.23;;;3.15;;
51010;SDS011;37038;50.182;8.624;2022-07-29T13:17:30;3.97;;;3.58;;
51010;SDS011;37038;50.182;8.624;2022-07-29T13:20:28;3.15;;;2.85;;
51010;SDS011;37038;50.182;8.624;2022-07-29T13:23:16;3.75;;;3.10;;
51010;SDS011;37038;50.182;8.624;2022-07-29T13:26:07;4.57;;;3.30;;
51010;SDS011;37038;50.182;8.624;2022-07-29T13:28:56;4.28;;;3.33;;
51010;SDS011;37038;50.182;8.624;2022-07-29T13:31:44;6.53;;;3.63;;
51010;SDS011;37038;50.182;8.624;2022-07-29T13:34:32;4.70;;;3.10;;
51010;SDS011;37038;50.182;8.624;2022-07-29T13:37:22;10.10;;;3.85;;
51010;SDS011;37038;50.182;8.624;2022-07-29T13:40:11;3.88;;;3.00;;
51010;SDS011;37038;50.182;8.624;2022-07-29T13:43:01;8.18;;;3.67;;
51010;SDS011;37038;50.182;8.624;2022-07-29T13:45:50;4.28;;;3.47;;
51010;SDS011;37038;50.182;8.624;2022-07-29T13:48:37;7.80;;;3.10;;
51010;SDS011;37038;50.182;8.624;2022-07-29T13:51:28;6.10;;;3.00;;
51010;SDS011;37038;50.182;8.624;2022-07-29T13:54:19;5.93;;;3.53;;
51010;SDS011;37038;50.182;8.624;2022-07-29T13:57:07;4.85;;;3.30;;
51010;SDS011;37038;50.182;8.624;2022-07-29T13:59:55;5.95;;;3.47;;
51010;SDS011;37038;50.182;8.624;2022-07-29T14:02:43;3.17;;;2.80;;
51010;SDS011;37038;50.182;8.624;2022-07-29T14:05:31;4.13;;;3.08;;
51010;SDS011;37038;50.182;8.624;2022-07-29T14:08:19;4.63;;;2.90;;
51010;SDS011;37038;50.182;8.624;2022-07-29T14:11:06;3.58;;;3.20;;
51010;SDS011;37038;50.182;8.624;2022-07-29T14:13:54;3.75;;;3.10;;
51010;SDS011;37038;50.182;8.624;2022-07-29T14:16:44;4.72;;;3.03;;
51010;SDS011;37038;50.182;8.624;2022-07-29T14:19:38;8.32;;;3.60;;
51010;SDS011;37038;50.182;8.624;2022-07-29T14:22:26;12.65;;;3.50;;
51010;SDS011;37038;50.182;8.624;2022-07-29T14:25:14;3.08;;;2.80;;
51010;SDS011;37038;50.182;8.624;2022-07-29T14:28:02;5.18;;;3.15;;
51010;SDS011;37038;50.182;8.624;2022-07-29T14:30:49;5.82;;;3.17;;
51010;SDS011;37038;50.182;8.624;2022-07-29T14:33:37;6.25;;;3.40;;
51010;SDS011;37038;50.182;8.624;2022-07-29T14:36:25;9.85;;;3.20;;
51010;SDS011;37038;50.182;8.624;2022-07-29T14:39:17;7.05;;;3.60;;
51010;SDS011;37038;50.182;8.624;2022-07-29T14:42:07;8.32;;;4.00;;
51010;SDS011;37038;50.182;8.624;2022-07-29T14:44:59;9.98;;;3.85;;
51010;SDS011;37038;50.182;8.624;2022-07-29T14:47:47;5.97;;;3.70;;
51010;SDS011;37038;50.182;8.624;2022-07-29T14:50:42;8.00;;;4.15;;
51010;SDS011;37038;50.182;8.624;2022-07-29T14:53:30;4.22;;;3.60;;
51010;SDS011;37038;50.182;8.624;2022-07-29T14:56:18;5.55;;;3.65;;
51010;SDS011;37038;50.182;8.624;2022-07-29T14:59:23;3.75;;;3.15;;
51010;SDS011;37038;50.182;8.624;2022-07-29T15:02:11;3.35;;;2.88;;
51010;SDS011;37038;50.182;8.624;2022-07-29T15:04:59;5.32;;;3.05;;
51010;SDS011;37038;50.182;8.624;2022-07-29T15:07:47;4.82;;;3.00;;
51010;SDS011;37038;50.182;8.624;2022-07-29T15:10:37;7.07;;;2.85;;
51010;SDS011;37038;50.182;8.624;2022-07-29T15:13:28;7.13;;;3.13;;
51010;SDS011;37038;50.182;8.624;2022-07-29T15:16:18;9.15;;;2.65;;
51010;SDS011;37038;50.182;8.624;2022-07-29T15:19:09;2.70;;;2.50;;
51010;SDS011;37038;50.182;8.624;2022-07-29T15:21:57;2.10;;;1.90;;
51010;SDS011;37038;50.182;8.624;2022-07-29T15:24:46;2.53;;;2.10;;
51010;SDS011;37038;50.182;8.624;2022-07-29T15:27:36;3.80;;;2.33;;
51010;SDS011;37038;50.182;8.624;2022-07-29T15:30:24;3.28;;;2.10;;
51010;SDS011;37038;50.182;8.624;2022-07-29T15:33:20;2.75;;;2.47;;
51010;SDS011;37038;50.182;8.624;2022-07-29T15:36:09;2.72;;;1.85;;
51010;SDS011;37038;50.182;8.624;2022-07-29T15:39:19;2.85;;;1.67;;
51010;SDS011;37038;50.182;8.624;2022-07-29T15:42:09;2.50;;;2.00;;
51010;SDS011;37038;50.182;8.624;2022-07-29T15:44:59;3.97;;;1.90;;
51010;SDS011;37038;50.182;8.624;2022-07-29T15:47:49;8.40;;;2.55;;
51010;SDS011;37038;50.182;8.624;2022-07-29T15:50:37;2.17;;;1.70;;
51010;SDS011;37038;50.182;8.624;2022-07-29T15:53:25;7.22;;;2.03;;
51010;SDS011;37038;50.182;8.624;2022-07-29T15:56:13;4.65;;;2.33;;
51010;SDS011;37038;50.182;8.624;2022-07-29T15:59:01;2.50;;;2.10;;
51010;SDS011;37038;50.182;8.624;2022-07-29T16:01:49;5.18;;;2.13;;
51010;SDS011;37038;50.182;8.624;2022-07-29T16:04:36;4.28;;;1.80;;
51010;SDS011;37038;50.182;8.624;2022-07-29T16:07:24;2.83;;;2.28;;
51010;SDS011;37038;50.182;8.624;2022-07-29T16:13:06;4.65;;;2.45;;
51010;SDS011;37038;50.182;8.624;2022-07-29T16:15:54;4.43;;;2.00;;
51010;SDS011;37038;50.182;8.624;2022-07-29T16:18:48;3.15;;;2.20;;
51010;SDS011;37038;50.182;8.624;2022-07-29T16:21:36;4.18;;;2.05;;
51010;SDS011;37038;50.182;8.624;2022-07-29T16:24:24;2.20;;;1.90;;
51010;SDS011;37038;50.182;8.624;2022-07-29T16:27:15;4.05;;;1.88;;
51010;SDS011;37038;50.182;8.624;2022-07-29T16:30:04;3.33;;;1.88;;
51010;SDS011;37038;50.182;8.624;2022-07-29T16:32:55;1.85;;;1.75;;
51010;SDS011;37038;50.182;8.624;2022-07-29T16:35:43;3.05;;;2.25;;
51010;SDS011;37038;50.182;8.624;2022-07-29T16:38:31;2.67;;;2.30;;
51010;SDS011;37038;50.182;8.624;2022-07-29T16:41:19;7.05;;;2.35;;
51010;SDS011;37038;50.182;8.624;2022-07-29T16:44:06;4.35;;;1.90;;
51010;SDS011;37038;50.182;8.624;2022-07-29T16:46:54;4.65;;;2.30;;
51010;SDS011;37038;50.182;8.624;2022-07-29T16:49:45;5.10;;;3.35;;
51010;SDS011;37038;50.182;8.624;2022-07-29T16:52:33;4.63;;;4.10;;
51010;SDS011;37038;50.182;8.624;2022-07-29T16:55:22;7.95;;;5.28;;
51010;SDS011;37038;50.182;8.624;2022-07-29T16:58:10;7.22;;;5.40;;
51010;SDS011;37038;50.182;8.624;2022-07-29T17:00:58;10.10;;;6.15;;
51010;SDS011;37038;50.182;8.624;2022-07-29T17:03:46;7.55;;;5.38;;
51010;SDS011;37038;50.182;8.624;2022-07-29T17:06:52;12.15;;;5.10;;
51010;SDS011;37038;50.182;8.624;2022-07-29T17:09:40;11.75;;;5.68;;
51010;SDS011;37038;50.182;8.624;2022-07-29T17:12:28;7.43;;;4.90;;
51010;SDS011;37038;50.182;8.624;2022-07-29T17:15:16;5.63;;;5.00;;
51010;SDS011;37038;50.182;8.624;2022-07-29T17:18:04;5.65;;;4.38;;
51010;SDS011;37038;50.182;8.624;2022-07-29T17:20:58;5.57;;;4.43;;
51010;SDS011;37038;50.182;8.624;2022-07-29T17:23:46;6.00;;;4.20;;
51010;SDS011;37038;50.182;8.624;2022-07-29T17:26:35;5.35;;;3.88;;
51010;SDS011;37038;50.182;8.624;2022-07-29T17:29:23;6.32;;;4.18;;
51010;SDS011;37038;50.182;8.624;2022-07-29T17:32:11;6.13;;;4.13;;
51010;SDS011;37038;50.182;8.624;2022-07-29T17:35:00;4.10;;;3.75;;
51010;SDS011;37038;50.182;8.624;2022-07-29T17:37:49;9.30;;;4.40;;
51010;SDS011;37038;50.182;8.624;2022-07-29T17:40:40;4.40;;;4.00;;
51010;SDS011;37038;50.182;8.624;2022-07-29T17:43:28;8.45;;;5.20;;
51010;SDS011;37038;50.182;8.624;2022-07-29T17:46:16;6.40;;;4.72;;
51010;SDS011;37038;50.182;8.624;2022-07-29T17:49:06;7.72;;;5.50;;
51010;SDS011;37038;50.182;8.624;2022-07-29T17:51:54;5.85;;;4.30;;
51010;SDS011;37038;50.182;8.624;2022-07-29T17:54:47;5.47;;;4.82;;
51010;SDS011;37038;50.182;8.624;2022-07-29T17:57:35;7.25;;;4.97;;